sensor_id;sensor_type;location;lat;lon;timestamp;pressure;altitude;pressure_sealevel;temperature;humidity
19526;BME280;9907;42.676;26.348;2022-12-10T00:02:03;98462.47;;;12.29;100.00
19526;BME280;9907;42.676;26.348;2022-12-10T00:04:28;98460.13;;;12.26;100.00
19526;BME280;9907;42.676;26.348;2022-12-10T00:06:54;98463.81;;;12.25;100.00
19526;BME280;9907;42.676;26.348;2022-12-10T00:09:20;98462.13;;;12.24;100.00
19526;BME280;9907;42.676;26.348;2022-12-10T00:11:46;98464.97;;;12.23;100.00
19526;BME280;9907;42.676;26.348;2022-12-10T00:14:12;98457.94;;;12.22;100.00
19526;BME280;9907;42.676;26.348;2022-12-10T00:16:38;98459.75;;;12.21;100.00
19526;BME280;9907;42.676;26.348;2022-12-10T00:19:04;98465.13;;;12.21;100.00
19526;BME280;9907;42.676;26.348;2022-12-10T00:21:31;98463.94;;;12.24;100.00
19526;BME280;9907;42.676;26.348;2022-12-10T00:23:58;98453.09;;;12.25;100.00
19526;BME280;9907;42.676;26.348;2022-12-10T00:26:26;98450.09;;;12.28;100.00
19526;BME280;9907;42.676;26.348;2022-12-10T00:28:53;98450.94;;;12.29;100.00
19526;BME280;9907;42.676;26.348;2022-12-10T00:31:24;98462.16;;;12.32;100.00
19526;BME280;9907;42.676;26.348;2022-12-10T00:33:50;98454.78;;;12.34;100.00
19526;BME280;9907;42.676;26.348;2022-12-10T00:36:20;98459.97;;;12.36;100.00
19526;BME280;9907;42.676;26.348;2022-12-10T00:38:47;98462.66;;;12.36;100.00
19526;BME280;9907;42.676;26.348;2022-12-10T00:41:13;98452.94;;;12.35;100.00
19526;BME280;9907;42.676;26.348;2022-12-10T00:43:39;98454.47;;;12.37;100.00
19526;BME280;9907;42.676;26.348;2022-12-10T00:46:05;98460.50;;;12.39;100.00
19526;BME280;9907;42.676;26.348;2022-12-10T00:48:31;98462.34;;;12.39;100.00
19526;BME280;9907;42.676;26.348;2022-12-10T00:51:09;98464.88;;;12.40;100.00
19526;BME280;9907;42.676;26.348;2022-12-10T00:53:37;98448.78;;;12.40;100.00
19526;BME280;9907;42.676;26.348;2022-12-10T00:56:03;98451.97;;;12.44;100.00
19526;BME280;9907;42.676;26.348;2022-12-10T00:58:32;98454.47;;;12.45;100.00
19526;BME280;9907;42.676;26.348;2022-12-10T01:03:32;98442.44;;;12.49;100.00
19526;BME280;9907;42.676;26.348;2022-12-10T01:06:16;98435.25;;;12.50;100.00
19526;BME280;9907;42.676;26.348;2022-12-10T01:08:43;98444.81;;;12.52;100.00
19526;BME280;9907;42.676;26.348;2022-12-10T01:11:10;98438.09;;;12.56;100.00
19526;BME280;9907;42.676;26.348;2022-12-10T01:13:36;98451.19;;;12.59;100.00
19526;BME280;9907;42.676;26.348;2022-12-10T01:16:04;98442.13;;;12.60;100.00
19526;BME280;9907;42.676;26.348;2022-12-10T01:18:30;98440.13;;;12.62;100.00
19526;BME280;9907;42.676;26.348;2022-12-10T01:21:03;98454.19;;;12.64;100.00
19526;BME280;9907;42.676;26.348;2022-12-10T01:23:32;98433.59;;;12.65;100.00
19526;BME280;9907;42.676;26.348;2022-12-10T01:26:02;98432.75;;;12.64;100.00
19526;BME280;9907;42.676;26.348;2022-12-10T01:28:30;98437.97;;;12.66;100.00
19526;BME280;9907;42.676;26.348;2022-12-10T01:31:00;98438.13;;;12.64;100.00
19526;BME280;9907;42.676;26.348;2022-12-10T01:33:25;98437.28;;;12.64;100.00
19526;BME280;9907;42.676;26.348;2022-12-10T01:35:51;98436.28;;;12.65;100.00
19526;BME280;9907;42.676;26.348;2022-12-10T01:38:16;98435.94;;;12.68;100.00
19526;BME280;9907;42.676;26.348;2022-12-10T01:40:42;98427.75;;;12.69;100.00
19526;BME280;9907;42.676;26.348;2022-12-10T01:43:13;98432.13;;;12.71;100.00
19526;BME280;9907;42.676;26.348;2022-12-10T01:45:39;98427.41;;;12.73;100.00
19526;BME280;9907;42.676;26.348;2022-12-10T01:48:04;98419.38;;;12.73;100.00
19526;BME280;9907;42.676;26.348;2022-12-10T01:50:30;98412.19;;;12.73;100.00
19526;BME280;9907;42.676;26.348;2022-12-10T01:52:55;98405.00;;;12.74;100.00
19526;BME280;9907;42.676;26.348;2022-12-10T01:55:44;98413.53;;;12.77;100.00
19526;BME280;9907;42.676;26.348;2022-12-10T01:58:11;98409.00;;;12.78;100.00
19526;BME280;9907;42.676;26.348;2022-12-10T02:00:44;98412.53;;;12.78;100.00
19526;BME280;9907;42.676;26.348;2022-12-10T02:03:20;98408.81;;;12.79;100.00
19526;BME280;9907;42.676;26.348;2022-12-10T02:05:58;98412.53;;;12.78;100.00
19526;BME280;9907;42.676;26.348;2022-12-10T02:08:36;98407.97;;;12.79;100.00
19526;BME280;9907;42.676;26.348;2022-12-10T02:11:16;98405.50;;;12.77;100.00
19526;BME280;9907;42.676;26.348;2022-12-10T02:13:49;98395.63;;;12.78;100.00
19526;BME280;9907;42.676;26.348;2022-12-10T02:16:39;98395.97;;;12.75;100.00
19526;BME280;9907;42.676;26.348;2022-12-10T02:21:53;98385.53;;;12.72;100.00
19526;BME280;9907;42.676;26.348;2022-12-10T02:24:29;98383.88;;;12.71;100.00
19526;BME280;9907;42.676;26.348;2022-12-10T02:27:17;98393.59;;;12.72;100.00
19526;BME280;9907;42.676;26.348;2022-12-10T02:29:46;98396.25;;;12.72;100.00
19526;BME280;9907;42.676;26.348;2022-12-10T02:32:17;98399.63;;;12.74;100.00
19526;BME280;9907;42.676;26.348;2022-12-10T02:34:50;98399.63;;;12.74;100.00
19526;BME280;9907;42.676;26.348;2022-12-10T02:37:24;98383.56;;;12.74;100.00
19526;BME280;9907;42.676;26.348;2022-12-10T02:39:55;98380.19;;;12.72;100.00
19526;BME280;9907;42.676;26.348;2022-12-10T02:42:23;98384.88;;;12.69;100.00
19526;BME280;9907;42.676;26.348;2022-12-10T02:44:52;98386.88;;;12.67;100.00
19526;BME280;9907;42.676;26.348;2022-12-10T02:47:19;98386.06;;;12.67;100.00
19526;BME280;9907;42.676;26.348;2022-12-10T02:49:47;98387.91;;;12.66;100.00
19526;BME280;9907;42.676;26.348;2022-12-10T02:52:17;98384.38;;;12.66;100.00
19526;BME280;9907;42.676;26.348;2022-12-10T02:54:45;98383.38;;;12.67;100.00
19526;BME280;9907;42.676;26.348;2022-12-10T02:57:27;98387.72;;;12.68;100.00
19526;BME280;9907;42.676;26.348;2022-12-10T03:00:10;98391.25;;;12.68;100.00
19526;BME280;9907;42.676;26.348;2022-12-10T03:03:09;98385.88;;;12.68;100.00
19526;BME280;9907;42.676;26.348;2022-12-10T03:08:15;98382.06;;;12.71;100.00
19526;BME280;9907;42.676;26.348;2022-12-10T03:10:57;98381.88;;;12.73;100.00
19526;BME280;9907;42.676;26.348;2022-12-10T03:16:09;98382.19;;;12.69;100.00
19526;BME280;9907;42.676;26.348;2022-12-10T03:18:35;98381.03;;;12.72;100.00
19526;BME280;9907;42.676;26.348;2022-12-10T03:21:05;98372.84;;;12.74;100.00
19526;BME280;9907;42.676;26.348;2022-12-10T03:23:35;98370.16;;;12.74;100.00
19526;BME280;9907;42.676;26.348;2022-12-10T03:26:03;98366.13;;;12.69;100.00
19526;BME280;9907;42.676;26.348;2022-12-10T03:28:32;98357.25;;;12.69;100.00
19526;BME280;9907;42.676;26.348;2022-12-10T03:30:59;98368.97;;;12.68;100.00
19526;BME280;9907;42.676;26.348;2022-12-10T03:33:24;98373.47;;;12.67;100.00
19526;BME280;9907;42.676;26.348;2022-12-10T03:35:50;98366.47;;;12.66;100.00
19526;BME280;9907;42.676;26.348;2022-12-10T03:38:16;98365.44;;;12.67;100.00
19526;BME280;9907;42.676;26.348;2022-12-10T03:40:42;98366.13;;;12.69;100.00
19526;BME280;9907;42.676;26.348;2022-12-10T03:43:08;98362.59;;;12.69;100.00
19526;BME280;9907;42.676;26.348;2022-12-10T03:45:33;98358.25;;;12.68;100.00
19526;BME280;9907;42.676;26.348;2022-12-10T03:47:58;98370.81;;;12.67;100.00
19526;BME280;9907;42.676;26.348;2022-12-10T03:50:24;98363.78;;;12.66;100.00
19526;BME280;9907;42.676;26.348;2022-12-10T03:52:49;98358.44;;;12.66;100.00
19526;BME280;9907;42.676;26.348;2022-12-10T03:55:15;98361.25;;;12.65;100.00
19526;BME280;9907;42.676;26.348;2022-12-10T03:57:40;98359.44;;;12.65;100.00
19526;BME280;9907;42.676;26.348;2022-12-10T04:00:06;98349.06;;;12.62;100.00
19526;BME280;9907;42.676;26.348;2022-12-10T04:02:32;98363.28;;;12.63;100.00
19526;BME280;9907;42.676;26.348;2022-12-10T04:04:58;98350.72;;;12.63;100.00
19526;BME280;9907;42.676;26.348;2022-12-10T04:07:23;98344.53;;;12.63;100.00
19526;BME280;9907;42.676;26.348;2022-12-10T04:09:48;98342.69;;;12.63;100.00
19526;BME280;9907;42.676;26.348;2022-12-10T04:12:14;98339.69;;;12.66;100.00
19526;BME280;9907;42.676;26.348;2022-12-10T04:14:39;98345.03;;;12.66;100.00
19526;BME280;9907;42.676;26.348;2022-12-10T04:17:23;98324.44;;;12.67;100.00
19526;BME280;9907;42.676;26.348;2022-12-10T04:19:49;98329.13;;;12.73;100.00
19526;BME280;9907;42.676;26.348;2022-12-10T04:22:14;98327.28;;;12.74;100.00
19526;BME280;9907;42.676;26.348;2022-12-10T04:24:58;98327.78;;;12.77;100.00
19526;BME280;9907;42.676;26.348;2022-12-10T04:27:35;98323.25;;;12.78;100.00
19526;BME280;9907;42.676;26.348;2022-12-10T04:30:04;98318.75;;;12.78;100.00
19526;BME280;9907;42.676;26.348;2022-12-10T04:32:30;98326.78;;;12.78;100.00
19526;BME280;9907;42.676;26.348;2022-12-10T04:34:56;98319.41;;;12.80;100.00
19526;BME280;9907;42.676;26.348;2022-12-10T04:37:22;98333.47;;;12.82;100.00
19526;BME280;9907;42.676;26.348;2022-12-10T04:39:50;98328.13;;;12.82;100.00
19526;BME280;9907;42.676;26.348;2022-12-10T04:42:16;98333.28;;;12.84;100.00
19526;BME280;9907;42.676;26.348;2022-12-10T04:44:41;98333.97;;;12.86;100.00
19526;BME280;9907;42.676;26.348;2022-12-10T04:47:08;98324.91;;;12.87;100.00
19526;BME280;9907;42.676;26.348;2022-12-10T04:49:34;98339.00;;;12.89;100.00
19526;BME280;9907;42.676;26.348;2022-12-10T04:52:00;98330.13;;;12.88;100.00
19526;BME280;9907;42.676;26.348;2022-12-10T04:54:26;98331.63;;;12.91;100.00
19526;BME280;9907;42.676;26.348;2022-12-10T04:56:51;98326.94;;;12.93;100.00
19526;BME280;9907;42.676;26.348;2022-12-10T04:59:17;98325.91;;;12.94;100.00
19526;BME280;9907;42.676;26.348;2022-12-10T05:01:43;98305.81;;;12.90;100.00
19526;BME280;9907;42.676;26.348;2022-12-10T05:04:11;98312.19;;;12.89;100.00
19526;BME280;9907;42.676;26.348;2022-12-10T05:06:36;98308.84;;;12.87;100.00
19526;BME280;9907;42.676;26.348;2022-12-10T05:09:03;98309.84;;;12.86;100.00
19526;BME280;9907;42.676;26.348;2022-12-10T05:11:30;98308.84;;;12.87;100.00
19526;BME280;9907;42.676;26.348;2022-12-10T05:13:56;98313.34;;;12.86;100.00
19526;BME280;9907;42.676;26.348;2022-12-10T05:16:23;98315.88;;;12.88;100.00
19526;BME280;9907;42.676;26.348;2022-12-10T05:18:49;98308.66;;;12.88;100.00
19526;BME280;9907;42.676;26.348;2022-12-10T05:21:18;98319.22;;;12.90;100.00
19526;BME280;9907;42.676;26.348;2022-12-10T05:23:47;98320.03;;;12.90;100.00
19526;BME280;9907;42.676;26.348;2022-12-10T05:26:30;98315.53;;;12.91;100.00
19526;BME280;9907;42.676;26.348;2022-12-10T05:28:56;98326.09;;;12.92;100.00
19526;BME280;9907;42.676;26.348;2022-12-10T05:31:25;98317.88;;;12.94;100.00
19526;BME280;9907;42.676;26.348;2022-12-10T05:33:51;98317.72;;;12.95;100.00
19526;BME280;9907;42.676;26.348;2022-12-10T05:36:20;98318.34;;;12.97;100.00
19526;BME280;9907;42.676;26.348;2022-12-10T05:38:46;98318.84;;;13.01;100.00
19526;BME280;9907;42.676;26.348;2022-12-10T05:41:14;98318.84;;;13.01;100.00
19526;BME280;9907;42.676;26.348;2022-12-10T05:43:40;98320.53;;;13.02;100.00
19526;BME280;9907;42.676;26.348;2022-12-10T05:46:09;98325.75;;;13.03;100.00
19526;BME280;9907;42.676;26.348;2022-12-10T05:48:35;98328.25;;;13.05;100.00
19526;BME280;9907;42.676;26.348;2022-12-10T05:51:05;98323.56;;;13.07;100.00
19526;BME280;9907;42.676;26.348;2022-12-10T05:53:31;98321.72;;;13.07;100.00
19526;BME280;9907;42.676;26.348;2022-12-10T05:56:04;98319.88;;;13.08;100.00
19526;BME280;9907;42.676;26.348;2022-12-10T05:58:30;98324.22;;;13.09;100.00
19526;BME280;9907;42.676;26.348;2022-12-10T06:00:56;98328.59;;;13.10;100.00
19526;BME280;9907;42.676;26.348;2022-12-10T06:03:23;98332.13;;;13.10;100.00
19526;BME280;9907;42.676;26.348;2022-12-10T06:05:49;98325.94;;;13.10;100.00
19526;BME280;9907;42.676;26.348;2022-12-10T06:08:15;98325.78;;;13.11;100.00
19526;BME280;9907;42.676;26.348;2022-12-10T06:10:40;98317.53;;;13.13;100.00
19526;BME280;9907;42.676;26.348;2022-12-10T06:13:05;98322.91;;;13.13;100.00
19526;BME280;9907;42.676;26.348;2022-12-10T06:15:31;98311.34;;;13.12;100.00
19526;BME280;9907;42.676;26.348;2022-12-10T06:17:58;98314.84;;;13.13;100.00
19526;BME280;9907;42.676;26.348;2022-12-10T06:20:25;98320.91;;;13.15;100.00
19526;BME280;9907;42.676;26.348;2022-12-10T06:22:50;98331.63;;;13.15;100.00
19526;BME280;9907;42.676;26.348;2022-12-10T06:25:16;98323.22;;;13.18;100.00
19526;BME280;9907;42.676;26.348;2022-12-10T06:27:42;98325.91;;;13.18;100.00
19526;BME280;9907;42.676;26.348;2022-12-10T06:30:08;98331.09;;;13.20;100.00
19526;BME280;9907;42.676;26.348;2022-12-10T06:32:34;98329.25;;;13.20;100.00
19526;BME280;9907;42.676;26.348;2022-12-10T06:35:03;98328.91;;;13.23;100.00
19526;BME280;9907;42.676;26.348;2022-12-10T06:37:29;98323.38;;;13.25;100.00
19526;BME280;9907;42.676;26.348;2022-12-10T06:39:55;98317.03;;;13.26;100.00
19526;BME280;9907;42.676;26.348;2022-12-10T06:42:20;98323.03;;;13.28;100.00
19526;BME280;9907;42.676;26.348;2022-12-10T06:44:46;98324.72;;;13.29;100.00
19526;BME280;9907;42.676;26.348;2022-12-10T06:47:12;98324.38;;;13.32;100.00
19526;BME280;9907;42.676;26.348;2022-12-10T06:49:38;98318.84;;;13.33;100.00
19526;BME280;9907;42.676;26.348;2022-12-10T06:52:03;98322.03;;;13.37;100.00
19526;BME280;9907;42.676;26.348;2022-12-10T06:54:29;98327.88;;;13.40;100.00
19526;BME280;9907;42.676;26.348;2022-12-10T06:56:55;98324.84;;;13.43;100.00
19526;BME280;9907;42.676;26.348;2022-12-10T06:59:21;98332.53;;;13.46;100.00
19526;BME280;9907;42.676;26.348;2022-12-10T07:01:46;98333.88;;;13.50;100.00
19526;BME280;9907;42.676;26.348;2022-12-10T07:04:12;98327.50;;;13.51;100.00
19526;BME280;9907;42.676;26.348;2022-12-10T07:06:38;98323.47;;;13.55;100.00
19526;BME280;9907;42.676;26.348;2022-12-10T07:09:03;98320.59;;;13.57;100.00
19526;BME280;9907;42.676;26.348;2022-12-10T07:11:29;98314.06;;;13.59;100.00
19526;BME280;9907;42.676;26.348;2022-12-10T07:13:57;98308.50;;;13.61;100.00
19526;BME280;9907;42.676;26.348;2022-12-10T07:16:27;98324.09;;;13.65;100.00
19526;BME280;9907;42.676;26.348;2022-12-10T07:18:55;98316.69;;;13.68;100.00
19526;BME280;9907;42.676;26.348;2022-12-10T07:21:23;98322.72;;;13.70;100.00
19526;BME280;9907;42.676;26.348;2022-12-10T07:23:55;98323.56;;;13.70;100.00
19526;BME280;9907;42.676;26.348;2022-12-10T07:26:23;98317.38;;;13.70;100.00
19526;BME280;9907;42.676;26.348;2022-12-10T07:28:49;98312.84;;;13.70;100.00
19526;BME280;9907;42.676;26.348;2022-12-10T07:31:15;98324.06;;;13.74;100.00
19526;BME280;9907;42.676;26.348;2022-12-10T07:33:40;98314.97;;;13.75;100.00
19526;BME280;9907;42.676;26.348;2022-12-10T07:36:07;98318.66;;;13.82;100.00
19526;BME280;9907;42.676;26.348;2022-12-10T07:38:33;98312.41;;;13.89;100.00
19526;BME280;9907;42.676;26.348;2022-12-10T07:41:06;98313.63;;;14.09;100.00
19526;BME280;9907;42.676;26.348;2022-12-10T07:43:34;98302.25;;;14.30;100.00
19526;BME280;9907;42.676;26.348;2022-12-10T07:46:12;98297.22;;;14.35;100.00
19526;BME280;9907;42.676;26.348;2022-12-10T07:48:39;98314.47;;;14.41;100.00
19526;BME280;9907;42.676;26.348;2022-12-10T07:51:05;98304.84;;;14.46;100.00
19526;BME280;9907;42.676;26.348;2022-12-10T07:53:31;98307.66;;;14.53;100.00
19526;BME280;9907;42.676;26.348;2022-12-10T07:55:57;98303.41;;;14.58;100.00
19526;BME280;9907;42.676;26.348;2022-12-10T07:58:23;98303.16;;;14.68;100.00
19526;BME280;9907;42.676;26.348;2022-12-10T08:00:48;98312.00;;;14.77;100.00
19526;BME280;9907;42.676;26.348;2022-12-10T08:03:14;98307.00;;;14.74;100.00
19526;BME280;9907;42.676;26.348;2022-12-10T08:05:39;98303.56;;;14.80;100.00
19526;BME280;9907;42.676;26.348;2022-12-10T08:08:05;98303.50;;;14.88;100.00
19526;BME280;9907;42.676;26.348;2022-12-10T08:10:33;98309.16;;;14.93;100.00
19526;BME280;9907;42.676;26.348;2022-12-10T08:12:59;98304.06;;;14.98;100.00
19526;BME280;9907;42.676;26.348;2022-12-10T08:15:24;98299.16;;;15.01;100.00
19526;BME280;9907;42.676;26.348;2022-12-10T08:17:50;98304.00;;;15.06;100.00
19526;BME280;9907;42.676;26.348;2022-12-10T08:20:15;98294.72;;;15.08;100.00
19526;BME280;9907;42.676;26.348;2022-12-10T08:22:40;98293.41;;;15.19;100.00
19526;BME280;9907;42.676;26.348;2022-12-10T08:25:06;98297.63;;;15.36;100.00
19526;BME280;9907;42.676;26.348;2022-12-10T08:27:32;98300.44;;;15.57;100.00
19526;BME280;9907;42.676;26.348;2022-12-10T08:29:57;98287.97;;;15.71;100.00
19526;BME280;9907;42.676;26.348;2022-12-10T08:32:23;98286.84;;;15.80;100.00
19526;BME280;9907;42.676;26.348;2022-12-10T08:34:48;98279.88;;;15.86;100.00
19526;BME280;9907;42.676;26.348;2022-12-10T08:37:14;98278.84;;;15.87;100.00
19526;BME280;9907;42.676;26.348;2022-12-10T08:39:39;98273.53;;;15.93;100.00
19526;BME280;9907;42.676;26.348;2022-12-10T08:42:05;98274.53;;;16.07;100.00
19526;BME280;9907;42.676;26.348;2022-12-10T08:44:31;98269.72;;;16.24;100.00
19526;BME280;9907;42.676;26.348;2022-12-10T08:46:56;98277.31;;;16.35;100.00
19526;BME280;9907;42.676;26.348;2022-12-10T08:49:22;98271.97;;;16.41;100.00
19526;BME280;9907;42.676;26.348;2022-12-10T08:51:47;98268.53;;;16.47;100.00
19526;BME280;9907;42.676;26.348;2022-12-10T08:54:12;98269.16;;;16.49;100.00
19526;BME280;9907;42.676;26.348;2022-12-10T08:56:38;98268.56;;;16.54;100.00
19526;BME280;9907;42.676;26.348;2022-12-10T08:59:05;98269.06;;;16.58;100.00
19526;BME280;9907;42.676;26.348;2022-12-10T09:01:30;98256.41;;;16.58;100.00
19526;BME280;9907;42.676;26.348;2022-12-10T09:03:56;98255.19;;;16.61;100.00
19526;BME280;9907;42.676;26.348;2022-12-10T09:06:22;98247.81;;;16.69;100.00
19526;BME280;9907;42.676;26.348;2022-12-10T09:08:49;98240.25;;;16.86;100.00
19526;BME280;9907;42.676;26.348;2022-12-10T09:11:29;98236.81;;;16.98;100.00
19526;BME280;9907;42.676;26.348;2022-12-10T09:13:56;98221.94;;;17.09;100.00
19526;BME280;9907;42.676;26.348;2022-12-10T09:16:21;98226.94;;;17.12;97.65
19526;BME280;9907;42.676;26.348;2022-12-10T09:18:52;98226.53;;;17.15;97.60
19526;BME280;9907;42.676;26.348;2022-12-10T09:21:17;98220.91;;;17.10;98.92
19526;BME280;9907;42.676;26.348;2022-12-10T09:23:43;98218.22;;;17.10;98.28
19526;BME280;9907;42.676;26.348;2022-12-10T09:26:12;98217.00;;;17.19;99.50
19526;BME280;9907;42.676;26.348;2022-12-10T09:28:38;98206.72;;;17.29;97.42
19526;BME280;9907;42.676;26.348;2022-12-10T09:31:06;98206.72;;;17.36;95.83
19526;BME280;9907;42.676;26.348;2022-12-10T09:33:32;98209.28;;;17.44;94.86
19526;BME280;9907;42.676;26.348;2022-12-10T09:35:58;98200.13;;;17.45;93.60
19526;BME280;9907;42.676;26.348;2022-12-10T09:38:24;98209.22;;;17.37;94.89
19526;BME280;9907;42.676;26.348;2022-12-10T09:41:02;98202.09;;;17.23;93.56
19526;BME280;9907;42.676;26.348;2022-12-10T09:43:41;98193.31;;;17.15;93.58
19526;BME280;9907;42.676;26.348;2022-12-10T09:46:31;98192.44;;;17.08;94.68
19526;BME280;9907;42.676;26.348;2022-12-10T09:51:27;98176.19;;;16.94;94.73
19526;BME280;9907;42.676;26.348;2022-12-10T09:53:56;98169.72;;;16.89;94.89
19526;BME280;9907;42.676;26.348;2022-12-10T09:56:43;98178.22;;;16.86;93.36
19526;BME280;9907;42.676;26.348;2022-12-10T09:59:20;98167.22;;;16.87;94.44
19526;BME280;9907;42.676;26.348;2022-12-10T10:01:50;98165.38;;;16.88;93.81
19526;BME280;9907;42.676;26.348;2022-12-10T10:04:16;98168.34;;;16.99;92.86
19526;BME280;9907;42.676;26.348;2022-12-10T10:06:42;98165.72;;;17.13;91.73
19526;BME280;9907;42.676;26.348;2022-12-10T10:09:11;98157.25;;;17.22;91.63
19526;BME280;9907;42.676;26.348;2022-12-10T10:11:38;98164.31;;;17.30;90.60
19526;BME280;9907;42.676;26.348;2022-12-10T10:14:13;98147.09;;;17.24;91.95
19526;BME280;9907;42.676;26.348;2022-12-10T10:19:16;98138.91;;;17.11;90.83
19526;BME280;9907;42.676;26.348;2022-12-10T10:21:45;98137.47;;;17.09;90.37
19526;BME280;9907;42.676;26.348;2022-12-10T10:24:20;98143.06;;;17.07;91.05
19526;BME280;9907;42.676;26.348;2022-12-10T10:26:47;98127.66;;;17.01;91.45
19526;BME280;9907;42.676;26.348;2022-12-10T10:29:17;98125.78;;;16.95;92.95
19526;BME280;9907;42.676;26.348;2022-12-10T10:31:44;98128.88;;;16.92;91.30
19526;BME280;9907;42.676;26.348;2022-12-10T10:34:21;98126.56;;;16.89;92.72
19526;BME280;9907;42.676;26.348;2022-12-10T10:36:55;98123.84;;;16.82;92.50
19526;BME280;9907;42.676;26.348;2022-12-10T10:39:27;98127.13;;;16.78;91.67
19526;BME280;9907;42.676;26.348;2022-12-10T10:41:54;98122.78;;;16.77;93.23
19526;BME280;9907;42.676;26.348;2022-12-10T10:44:26;98115.72;;;16.76;93.08
19526;BME280;9907;42.676;26.348;2022-12-10T10:46:53;98108.66;;;16.75;94.37
19526;BME280;9907;42.676;26.348;2022-12-10T10:49:31;98109.88;;;16.72;91.94
19526;BME280;9907;42.676;26.348;2022-12-10T10:52:06;98110.31;;;16.76;91.81
19526;BME280;9907;42.676;26.348;2022-12-10T10:57:04;98108.50;;;16.83;91.80
19526;BME280;9907;42.676;26.348;2022-12-10T10:59:35;98112.84;;;16.84;92.02
19526;BME280;9907;42.676;26.348;2022-12-10T11:02:14;98099.56;;;16.82;91.09
19526;BME280;9907;42.676;26.348;2022-12-10T11:04:52;98100.66;;;16.88;91.72
19526;BME280;9907;42.676;26.348;2022-12-10T11:07:33;98099.00;;;16.93;91.23
19526;BME280;9907;42.676;26.348;2022-12-10T11:10:00;98097.41;;;17.06;91.71
19526;BME280;9907;42.676;26.348;2022-12-10T11:12:39;98088.97;;;17.28;88.96
19526;BME280;9907;42.676;26.348;2022-12-10T11:17:51;98085.06;;;17.37;90.53
19526;BME280;9907;42.676;26.348;2022-12-10T11:20:20;98097.09;;;17.41;89.80
19526;BME280;9907;42.676;26.348;2022-12-10T11:23:10;98083.84;;;17.40;89.57
19526;BME280;9907;42.676;26.348;2022-12-10T11:25:48;98078.22;;;17.41;89.12
19526;BME280;9907;42.676;26.348;2022-12-10T11:28:47;98078.00;;;17.36;90.51
19526;BME280;9907;42.676;26.348;2022-12-10T11:31:47;98080.28;;;17.39;89.64
19526;BME280;9907;42.676;26.348;2022-12-10T11:44:49;98058.41;;;17.15;86.83
19526;BME280;9907;42.676;26.348;2022-12-10T11:47:35;98057.59;;;17.14;87.01
19526;BME280;9907;42.676;26.348;2022-12-10T11:50:19;98062.34;;;17.12;87.08
19526;BME280;9907;42.676;26.348;2022-12-10T11:53:01;98060.47;;;17.13;86.92
19526;BME280;9907;42.676;26.348;2022-12-10T11:55:47;98053.41;;;17.12;87.81
19526;BME280;9907;42.676;26.348;2022-12-10T11:59:05;98055.28;;;17.11;86.97
19526;BME280;9907;42.676;26.348;2022-12-10T12:13:25;98045.97;;;17.20;85.89
19526;BME280;9907;42.676;26.348;2022-12-10T12:16:09;98047.66;;;17.21;84.87
19526;BME280;9907;42.676;26.348;2022-12-10T12:18:54;98046.81;;;17.21;85.66
19526;BME280;9907;42.676;26.348;2022-12-10T12:21:21;98034.75;;;17.17;85.85
19526;BME280;9907;42.676;26.348;2022-12-10T12:24:01;98033.09;;;17.16;86.73
19526;BME280;9907;42.676;26.348;2022-12-10T12:29:23;98022.47;;;17.08;86.64
19526;BME280;9907;42.676;26.348;2022-12-10T12:32:14;98032.84;;;17.04;85.82
19526;BME280;9907;42.676;26.348;2022-12-10T12:34:44;98026.84;;;17.02;86.54
19526;BME280;9907;42.676;26.348;2022-12-10T12:37:14;98021.00;;;16.98;86.76
19526;BME280;9907;42.676;26.348;2022-12-10T12:42:29;98017.25;;;16.93;85.51
19526;BME280;9907;42.676;26.348;2022-12-10T12:45:11;98003.13;;;16.91;86.65
19526;BME280;9907;42.676;26.348;2022-12-10T12:53:10;97998.50;;;16.78;89.44
19526;BME280;9907;42.676;26.348;2022-12-10T12:58:46;97988.34;;;16.74;88.79
19526;BME280;9907;42.676;26.348;2022-12-10T13:01:23;97988.13;;;16.69;87.73
19526;BME280;9907;42.676;26.348;2022-12-10T13:03:52;97984.78;;;16.67;87.02
19526;BME280;9907;42.676;26.348;2022-12-10T13:14:31;97999.47;;;16.58;89.60
19526;BME280;9907;42.676;26.348;2022-12-10T13:17:02;98000.88;;;16.53;89.52
19526;BME280;9907;42.676;26.348;2022-12-10T13:19:32;98011.03;;;16.51;89.49
19526;BME280;9907;42.676;26.348;2022-12-10T13:22:07;98008.72;;;16.48;88.64
19526;BME280;9907;42.676;26.348;2022-12-10T13:30:01;98010.31;;;16.36;91.39
19526;BME280;9907;42.676;26.348;2022-12-10T13:42:38;97998.97;;;16.13;94.60
19526;BME280;9907;42.676;26.348;2022-12-10T13:45:24;97988.19;;;16.06;93.92
19526;BME280;9907;42.676;26.348;2022-12-10T13:50:35;97981.91;;;15.99;93.77
19526;BME280;9907;42.676;26.348;2022-12-10T13:55:55;97972.31;;;15.90;94.26
19526;BME280;9907;42.676;26.348;2022-12-10T14:06:25;97986.25;;;15.73;96.48
19526;BME280;9907;42.676;26.348;2022-12-10T14:09:02;97989.75;;;15.67;95.36
19526;BME280;9907;42.676;26.348;2022-12-10T14:11:32;97986.59;;;15.63;96.64
19526;BME280;9907;42.676;26.348;2022-12-10T14:14:01;97995.25;;;15.58;97.16
19526;BME280;9907;42.676;26.348;2022-12-10T14:16:29;97988.59;;;15.54;97.78
19526;BME280;9907;42.676;26.348;2022-12-10T14:19:07;97983.94;;;15.48;97.26
19526;BME280;9907;42.676;26.348;2022-12-10T14:21:38;97982.03;;;15.42;97.79
19526;BME280;9907;42.676;26.348;2022-12-10T14:24:05;97981.78;;;15.37;99.16
19526;BME280;9907;42.676;26.348;2022-12-10T14:26:36;97972.44;;;15.33;99.41
19526;BME280;9907;42.676;26.348;2022-12-10T14:31:36;97974.44;;;15.25;100.00
19526;BME280;9907;42.676;26.348;2022-12-10T14:34:07;97958.84;;;15.20;100.00
19526;BME280;9907;42.676;26.348;2022-12-10T14:36:37;97959.25;;;15.17;100.00
19526;BME280;9907;42.676;26.348;2022-12-10T14:39:17;97953.22;;;15.15;100.00
19526;BME280;9907;42.676;26.348;2022-12-10T14:41:43;97950.91;;;15.12;100.00
19526;BME280;9907;42.676;26.348;2022-12-10T14:44:13;97943.88;;;15.11;99.34